East Earl, Pennsylvania
Current Conditions -  °F | °C
As of 5:15 AM on Saturday 22 Nov 2014 (Local Time) from KMQS Reporting Station
Clear Clear  
Wind Chill: 21°   Ceiling: Unl
Heat Index: 21°   Visibility: 10mi
Dew Point: 10°   Wind: 3mph
Humidity: 63%   Direction: 220°SW
Pressure: 30.48"   Gusts: NA
Location:  40.11°N, 76.03°W
Report Text: KMQS 221015Z AUTO 22003KT 10SM CLR M06/M12 A3048 RMK AO2
Loading
Personal Weather Stations






























Interactive Weather Map New forecast layout! Learn more

10-Day Weather Forecast

Advertisements
Track Severe Weather on mobile